createdAt,value
2022-12-31T00:00:15.000Z,83.44
2022-12-31T00:01:15.000Z,83.54
2022-12-31T00:02:15.000Z,83.51
2022-12-31T00:03:15.000Z,83.54
2022-12-31T00:04:15.000Z,83.54
2022-12-31T00:05:15.000Z,83.51
2022-12-31T00:06:15.000Z,83.65
2022-12-31T00:07:15.000Z,83.61
2022-12-31T00:08:15.000Z,83.61
2022-12-31T00:09:15.000Z,83.61
2022-12-31T00:10:15.000Z,83.65
2022-12-31T00:11:15.000Z,83.51
2022-12-31T00:12:15.000Z,83.51
2022-12-31T00:13:15.000Z,83.51
2022-12-31T00:14:15.000Z,83.61
2022-12-31T00:15:15.000Z,83.61
2022-12-31T00:16:14.000Z,83.51
2022-12-31T00:17:14.000Z,83.51
2022-12-31T00:18:14.000Z,83.51
2022-12-31T00:19:14.000Z,83.51
2022-12-31T00:20:14.000Z,83.51
2022-12-31T00:21:14.000Z,83.51
2022-12-31T00:22:14.000Z,83.51
2022-12-31T00:23:14.000Z,83.51
2022-12-31T00:24:14.000Z,83.51
2022-12-31T00:25:14.000Z,83.51
2022-12-31T00:26:14.000Z,83.51
2022-12-31T00:27:14.000Z,83.51
2022-12-31T00:28:14.000Z,83.51
2022-12-31T00:29:14.000Z,83.61
2022-12-31T00:30:14.000Z,83.81
2022-12-31T00:31:14.000Z,83.81
2022-12-31T00:32:14.000Z,83.81
2022-12-31T00:33:14.000Z,83.81
2022-12-31T00:34:14.000Z,83.81
2022-12-31T00:35:14.000Z,84.01
2022-12-31T00:36:14.000Z,84.01
2022-12-31T00:37:14.000Z,84.12
2022-12-31T00:38:14.000Z,84.22
2022-12-31T00:39:14.000Z,84.33
2022-12-31T00:40:14.000Z,84.47
2022-12-31T00:41:14.000Z,84.53
2022-12-31T00:42:14.000Z,84.63
2022-12-31T00:43:14.000Z,84.63
2022-12-31T00:44:14.000Z,84.63
2022-12-31T00:45:14.000Z,84.63
2022-12-31T00:46:14.000Z,84.74
2022-12-31T00:47:14.000Z,84.83
2022-12-31T00:48:14.000Z,84.83
2022-12-31T00:49:14.000Z,84.83
2022-12-31T00:50:14.000Z,84.94
2022-12-31T00:51:14.000Z,84.94
2022-12-31T00:52:14.000Z,84.94
2022-12-31T00:53:14.000Z,84.94
2022-12-31T00:54:14.000Z,85.04
2022-12-31T00:55:14.000Z,84.94
2022-12-31T00:56:14.000Z,84.94
2022-12-31T00:57:14.000Z,84.94
2022-12-31T00:58:14.000Z,84.83
2022-12-31T00:59:14.000Z,84.94
2022-12-31T01:00:14.000Z,84.94
2022-12-31T01:01:14.000Z,84.83
2022-12-31T01:02:14.000Z,84.83
2022-12-31T01:03:14.000Z,84.83
2022-12-31T01:04:14.000Z,84.94
2022-12-31T01:05:14.000Z,84.83
2022-12-31T01:06:14.000Z,84.94
2022-12-31T01:07:14.000Z,84.94
2022-12-31T01:08:14.000Z,84.94
2022-12-31T01:09:14.000Z,84.83
2022-12-31T01:10:14.000Z,84.83
2022-12-31T01:11:14.000Z,84.83
2022-12-31T01:12:14.000Z,84.94
2022-12-31T01:13:14.000Z,85.24
2022-12-31T01:14:14.000Z,85.35
2022-12-31T01:15:14.000Z,85.45
2022-12-31T01:16:14.000Z,85.55
2022-12-31T01:17:14.000Z,85.55
2022-12-31T01:18:14.000Z,85.69
2022-12-31T01:19:14.000Z,85.65
2022-12-31T01:20:14.000Z,85.75
2022-12-31T01:21:14.000Z,85.75
2022-12-31T01:22:14.000Z,85.86
2022-12-31T01:23:14.000Z,85.86
2022-12-31T01:24:14.000Z,85.86
2022-12-31T01:25:14.000Z,85.86
2022-12-31T01:26:14.000Z,86.06
2022-12-31T01:27:14.000Z,86.06
2022-12-31T01:28:14.000Z,85.96
2022-12-31T01:29:14.000Z,86.06
2022-12-31T01:30:14.000Z,86.06
2022-12-31T01:31:14.000Z,86.16
2022-12-31T01:32:14.000Z,86.16
2022-12-31T01:33:14.000Z,86.16
2022-12-31T01:34:14.000Z,86.16
2022-12-31T01:35:14.000Z,86.26
2022-12-31T01:36:14.000Z,86.26
2022-12-31T01:37:14.000Z,86.26
2022-12-31T01:38:14.000Z,86.26
2022-12-31T01:39:14.000Z,86.16
2022-12-31T01:40:14.000Z,86.16
2022-12-31T01:41:14.000Z,86.16
2022-12-31T01:42:14.000Z,86.16
2022-12-31T01:43:14.000Z,86.36
2022-12-31T01:44:14.000Z,86.26
2022-12-31T01:45:14.000Z,86.26
2022-12-31T01:46:14.000Z,86.26
2022-12-31T01:47:14.000Z,86.12
2022-12-31T01:48:14.000Z,86.16
2022-12-31T01:49:14.000Z,86.12
2022-12-31T01:50:14.000Z,86.02
2022-12-31T01:51:14.000Z,86.02
2022-12-31T01:52:14.000Z,85.92
2022-12-31T01:53:14.000Z,86.02
2022-12-31T01:54:14.000Z,86.02
2022-12-31T01:55:14.000Z,86.02
2022-12-31T01:56:14.000Z,86.02
2022-12-31T01:57:14.000Z,86.12
2022-12-31T01:58:14.000Z,86.12
2022-12-31T01:59:13.000Z,86.22
2022-12-31T02:00:13.000Z,86.22
2022-12-31T02:01:13.000Z,86.22
2022-12-31T02:02:13.000Z,86.12
2022-12-31T02:03:13.000Z,86.12
2022-12-31T02:04:13.000Z,86.12
2022-12-31T02:05:13.000Z,86.02
2022-12-31T02:06:13.000Z,86.02
2022-12-31T02:07:13.000Z,86.12
2022-12-31T02:08:13.000Z,86.26
2022-12-31T02:09:13.000Z,86.26
2022-12-31T02:10:13.000Z,86.57
2022-12-31T02:11:13.000Z,86.47
2022-12-31T02:12:13.000Z,86.57
2022-12-31T02:13:13.000Z,86.57
2022-12-31T02:14:13.000Z,86.57
2022-12-31T02:15:13.000Z,86.67
2022-12-31T02:16:13.000Z,86.67
2022-12-31T02:17:13.000Z,86.73
2022-12-31T02:18:13.000Z,86.77
2022-12-31T02:19:13.000Z,86.77
2022-12-31T02:20:13.000Z,87.18
2022-12-31T02:21:13.000Z,86.94
2022-12-31T02:22:13.000Z,86.98
2022-12-31T02:23:13.000Z,86.98
2022-12-31T02:24:13.000Z,87.08
2022-12-31T02:25:13.000Z,87.08
2022-12-31T02:26:13.000Z,87.29
2022-12-31T02:27:13.000Z,87.29
2022-12-31T02:28:13.000Z,87.45
2022-12-31T02:29:13.000Z,87.45
2022-12-31T02:30:13.000Z,87.45
2022-12-31T02:31:13.000Z,87.55
2022-12-31T02:32:13.000Z,87.55
2022-12-31T02:33:13.000Z,87.45
2022-12-31T02:34:13.000Z,87.55
2022-12-31T02:35:13.000Z,87.55
2022-12-31T02:36:13.000Z,87.35
2022-12-31T02:37:13.000Z,87.35
2022-12-31T02:38:13.000Z,87.35
2022-12-31T02:39:13.000Z,87.35
2022-12-31T02:40:13.000Z,87.45
2022-12-31T02:41:13.000Z,87.35
2022-12-31T02:42:13.000Z,87.65
2022-12-31T02:43:13.000Z,87.76
2022-12-31T02:44:13.000Z,87.85
2022-12-31T02:45:13.000Z,87.85
2022-12-31T02:46:13.000Z,87.96
2022-12-31T02:47:13.000Z,87.96
2022-12-31T02:48:13.000Z,87.96
2022-12-31T02:49:13.000Z,87.96
2022-12-31T02:50:13.000Z,87.96
2022-12-31T02:51:13.000Z,88.02
2022-12-31T02:52:13.000Z,88.12
2022-12-31T02:53:13.000Z,88.12
2022-12-31T02:54:13.000Z,88.02
2022-12-31T02:55:13.000Z,88.02
2022-12-31T02:56:13.000Z,88.02
2022-12-31T02:57:13.000Z,88.02
2022-12-31T02:58:13.000Z,88.12
2022-12-31T02:59:13.000Z,88.02
2022-12-31T03:00:13.000Z,88.02
2022-12-31T03:01:13.000Z,88.02
2022-12-31T03:02:13.000Z,88.02
2022-12-31T03:03:13.000Z,87.92
2022-12-31T03:04:13.000Z,88.02
2022-12-31T03:05:13.000Z,88.06
2022-12-31T03:06:13.000Z,88.06
2022-12-31T03:07:13.000Z,88.17
2022-12-31T03:08:13.000Z,88.17
2022-12-31T03:09:13.000Z,88.26
2022-12-31T03:10:13.000Z,88.26
2022-12-31T03:11:13.000Z,88.37
2022-12-31T03:12:13.000Z,88.37
2022-12-31T03:13:13.000Z,88.47
2022-12-31T03:14:13.000Z,88.67
2022-12-31T03:15:13.000Z,88.67
2022-12-31T03:16:13.000Z,88.88
2022-12-31T03:17:13.000Z,88.88
2022-12-31T03:18:13.000Z,88.88
2022-12-31T03:19:13.000Z,88.88
2022-12-31T03:20:13.000Z,88.98
2022-12-31T03:21:13.000Z,88.98
2022-12-31T03:22:13.000Z,88.98
2022-12-31T03:23:13.000Z,88.98
2022-12-31T03:24:13.000Z,88.98
2022-12-31T03:25:13.000Z,88.84
2022-12-31T03:26:13.000Z,88.84
2022-12-31T03:27:13.000Z,88.93
2022-12-31T03:28:13.000Z,89.04
2022-12-31T03:29:13.000Z,88.93
2022-12-31T03:30:13.000Z,88.84
2022-12-31T03:31:13.000Z,88.93
2022-12-31T03:32:13.000Z,88.84
2022-12-31T03:33:13.000Z,88.73
2022-12-31T03:34:13.000Z,88.63
2022-12-31T03:35:13.000Z,88.63
2022-12-31T03:36:13.000Z,88.63
2022-12-31T03:37:13.000Z,88.63
2022-12-31T03:38:13.000Z,88.63
2022-12-31T03:39:13.000Z,88.53
2022-12-31T03:40:13.000Z,88.53
2022-12-31T03:41:12.000Z,88.43
2022-12-31T03:42:12.000Z,88.43
2022-12-31T03:43:12.000Z,88.32
2022-12-31T03:44:12.000Z,88.32
2022-12-31T03:45:12.000Z,88.43
2022-12-31T03:46:12.000Z,88.43
2022-12-31T03:47:12.000Z,88.32
2022-12-31T03:48:12.000Z,88.32
2022-12-31T03:49:12.000Z,88.43
2022-12-31T03:50:12.000Z,88.43
2022-12-31T03:51:12.000Z,88.43
2022-12-31T03:52:12.000Z,88.43
2022-12-31T03:53:12.000Z,88.63
2022-12-31T03:54:12.000Z,88.63
2022-12-31T03:55:12.000Z,88.63
2022-12-31T03:56:12.000Z,88.73
2022-12-31T03:57:12.000Z,88.84
2022-12-31T03:58:12.000Z,88.84
2022-12-31T03:59:12.000Z,88.84
2022-12-31T04:00:12.000Z,88.84
2022-12-31T04:01:12.000Z,88.84
2022-12-31T04:02:12.000Z,88.84
2022-12-31T04:03:12.000Z,89.00
2022-12-31T04:04:12.000Z,88.90
2022-12-31T04:05:12.000Z,89.04
2022-12-31T04:06:12.000Z,89.10
2022-12-31T04:07:12.000Z,89.10
2022-12-31T04:08:12.000Z,89.20
2022-12-31T04:09:12.000Z,89.10
2022-12-31T04:10:12.000Z,89.10
2022-12-31T04:11:12.000Z,89.10
2022-12-31T04:12:12.000Z,89.20
2022-12-31T04:13:12.000Z,89.20
2022-12-31T04:14:12.000Z,89.40
2022-12-31T04:15:12.000Z,89.30
2022-12-31T04:16:12.000Z,89.20
2022-12-31T04:17:12.000Z,89.20
2022-12-31T04:18:12.000Z,89.10
2022-12-31T04:19:12.000Z,89.20
2022-12-31T04:20:12.000Z,89.20
2022-12-31T04:21:12.000Z,89.30
2022-12-31T04:22:12.000Z,89.40
2022-12-31T04:23:12.000Z,89.40
2022-12-31T04:24:12.000Z,89.51
2022-12-31T04:25:12.000Z,89.40
2022-12-31T04:26:12.000Z,89.51
2022-12-31T04:27:12.000Z,89.71
2022-12-31T04:28:12.000Z,89.71
2022-12-31T04:29:12.000Z,89.71
2022-12-31T04:30:12.000Z,89.71
2022-12-31T04:31:12.000Z,89.77
2022-12-31T04:32:12.000Z,89.97
2022-12-31T04:33:12.000Z,89.97
2022-12-31T04:34:12.000Z,89.87
2022-12-31T04:35:12.000Z,89.77
2022-12-31T04:36:12.000Z,89.87
2022-12-31T04:37:12.000Z,89.87
2022-12-31T04:38:12.000Z,89.87
2022-12-31T04:39:12.000Z,89.77
2022-12-31T04:40:12.000Z,89.57
2022-12-31T04:41:12.000Z,89.57
2022-12-31T04:42:12.000Z,89.63
2022-12-31T04:43:12.000Z,89.53
2022-12-31T04:44:12.000Z,89.32
2022-12-31T04:45:12.000Z,89.32
2022-12-31T04:46:12.000Z,89.32
2022-12-31T04:47:12.000Z,89.42
2022-12-31T04:48:12.000Z,89.32
2022-12-31T04:49:12.000Z,89.22
2022-12-31T04:50:12.000Z,89.12
2022-12-31T04:51:12.000Z,89.12
2022-12-31T04:52:12.000Z,89.12
2022-12-31T04:53:12.000Z,89.01
2022-12-31T04:54:12.000Z,88.92
2022-12-31T04:55:12.000Z,89.22
2022-12-31T04:56:12.000Z,89.22
2022-12-31T04:57:12.000Z,89.07
2022-12-31T04:58:12.000Z,89.07
2022-12-31T04:59:12.000Z,89.07
2022-12-31T05:00:12.000Z,89.38
2022-12-31T05:01:12.000Z,89.07
2022-12-31T05:02:12.000Z,88.98
2022-12-31T05:03:12.000Z,89.07
2022-12-31T05:04:12.000Z,88.98
2022-12-31T05:05:12.000Z,88.63
2022-12-31T05:06:12.000Z,88.93
2022-12-31T05:07:12.000Z,88.63
2022-12-31T05:08:12.000Z,88.53
2022-12-31T05:09:12.000Z,88.53
2022-12-31T05:10:12.000Z,88.53
2022-12-31T05:11:12.000Z,88.42
2022-12-31T05:12:12.000Z,88.22
2022-12-31T05:13:12.000Z,88.12
2022-12-31T05:14:12.000Z,88.02
2022-12-31T05:15:12.000Z,87.87
2022-12-31T05:16:12.000Z,87.67
2022-12-31T05:17:12.000Z,87.77
2022-12-31T05:18:12.000Z,87.67
2022-12-31T05:19:12.000Z,87.57
2022-12-31T05:20:12.000Z,87.57
2022-12-31T05:21:12.000Z,87.77
2022-12-31T05:22:12.000Z,87.67
2022-12-31T05:23:12.000Z,87.57
2022-12-31T05:24:11.000Z,87.37
2022-12-31T05:25:11.000Z,87.26
2022-12-31T05:26:11.000Z,87.12
2022-12-31T05:27:11.000Z,86.92
2022-12-31T05:28:11.000Z,86.92
2022-12-31T05:29:11.000Z,86.82
2022-12-31T05:30:11.000Z,86.61
2022-12-31T05:31:11.000Z,86.61
2022-12-31T05:32:11.000Z,86.61
2022-12-31T05:33:11.000Z,86.51
2022-12-31T05:34:11.000Z,86.41
2022-12-31T05:35:11.000Z,86.41
2022-12-31T05:36:11.000Z,86.41
2022-12-31T05:37:11.000Z,86.31
2022-12-31T05:38:11.000Z,86.51
2022-12-31T05:39:11.000Z,86.41
2022-12-31T05:40:11.000Z,86.41
2022-12-31T05:41:11.000Z,86.31
2022-12-31T05:42:11.000Z,86.51
2022-12-31T05:43:11.000Z,86.31
2022-12-31T05:44:11.000Z,86.31
2022-12-31T05:45:11.000Z,86.21
2022-12-31T05:46:11.000Z,86.21
2022-12-31T05:47:11.000Z,86.21
2022-12-31T05:48:11.000Z,86.31
2022-12-31T05:49:11.000Z,86.31
2022-12-31T05:50:11.000Z,86.21
2022-12-31T05:51:11.000Z,86.21
2022-12-31T05:52:11.000Z,86.21
2022-12-31T05:53:11.000Z,86.41
2022-12-31T05:54:11.000Z,86.21
2022-12-31T05:55:11.000Z,86.21
2022-12-31T05:56:11.000Z,86.27
2022-12-31T05:57:11.000Z,86.31
2022-12-31T05:58:11.000Z,86.31
2022-12-31T05:59:11.000Z,86.31
2022-12-31T06:00:11.000Z,86.21
2022-12-31T06:01:11.000Z,86.21
2022-12-31T06:02:11.000Z,86.16
2022-12-31T06:03:11.000Z,86.16
2022-12-31T06:04:11.000Z,86.07
2022-12-31T06:05:11.000Z,85.96
2022-12-31T06:06:11.000Z,85.96
2022-12-31T06:07:11.000Z,85.96
2022-12-31T06:08:11.000Z,85.96
2022-12-31T06:09:11.000Z,85.86
2022-12-31T06:10:11.000Z,85.86
2022-12-31T06:11:11.000Z,85.86
2022-12-31T06:12:11.000Z,85.86
2022-12-31T06:13:11.000Z,85.86
2022-12-31T06:14:11.000Z,85.76
2022-12-31T06:15:11.000Z,85.76
2022-12-31T06:16:11.000Z,85.76
2022-12-31T06:17:11.000Z,85.76
2022-12-31T06:18:11.000Z,85.76
2022-12-31T06:19:11.000Z,85.76
2022-12-31T06:20:11.000Z,85.86
2022-12-31T06:21:11.000Z,85.66
2022-12-31T06:22:11.000Z,85.66
2022-12-31T06:23:11.000Z,85.46
2022-12-31T06:24:11.000Z,85.35
2022-12-31T06:25:11.000Z,85.25
2022-12-31T06:26:11.000Z,85.46
2022-12-31T06:27:11.000Z,85.15
2022-12-31T06:28:11.000Z,85.15
2022-12-31T06:29:11.000Z,85.21
2022-12-31T06:30:11.000Z,84.91
2022-12-31T06:31:11.000Z,84.91
2022-12-31T06:32:11.000Z,84.60
2022-12-31T06:33:11.000Z,84.30
2022-12-31T06:34:11.000Z,84.40
2022-12-31T06:35:11.000Z,84.16
2022-12-31T06:36:11.000Z,83.85
2022-12-31T06:37:11.000Z,83.95
2022-12-31T06:38:11.000Z,83.54
2022-12-31T06:39:11.000Z,83.34
2022-12-31T06:40:11.000Z,83.04
2022-12-31T06:41:11.000Z,83.04
2022-12-31T06:42:11.000Z,82.84
2022-12-31T06:43:11.000Z,82.70
2022-12-31T06:44:11.000Z,82.59
2022-12-31T06:45:11.000Z,82.39
2022-12-31T06:46:11.000Z,82.39
2022-12-31T06:47:11.000Z,82.19
2022-12-31T06:48:11.000Z,82.09
2022-12-31T06:49:11.000Z,82.09
2022-12-31T06:50:11.000Z,81.88
2022-12-31T06:51:11.000Z,81.78
2022-12-31T06:52:11.000Z,81.68
2022-12-31T06:53:11.000Z,81.54
2022-12-31T06:54:11.000Z,81.44
2022-12-31T06:55:11.000Z,81.44
2022-12-31T06:56:11.000Z,81.34
2022-12-31T06:57:11.000Z,81.34
2022-12-31T06:58:11.000Z,81.13
2022-12-31T06:59:11.000Z,81.13
2022-12-31T07:00:11.000Z,81.04
2022-12-31T07:01:11.000Z,80.93
2022-12-31T07:02:11.000Z,80.93
2022-12-31T07:03:11.000Z,80.83
2022-12-31T07:04:11.000Z,80.63
2022-12-31T07:05:11.000Z,80.73
2022-12-31T07:06:10.000Z,80.59
2022-12-31T07:07:10.000Z,80.49
2022-12-31T07:08:10.000Z,80.39
2022-12-31T07:09:10.000Z,80.39
2022-12-31T07:10:10.000Z,80.29
2022-12-31T07:11:10.000Z,80.39
2022-12-31T07:12:10.000Z,80.39
2022-12-31T07:13:10.000Z,80.29
2022-12-31T07:14:10.000Z,80.29
2022-12-31T07:15:10.000Z,80.19
2022-12-31T07:16:10.000Z,80.08
2022-12-31T07:17:10.000Z,80.08
2022-12-31T07:18:10.000Z,79.98
2022-12-31T07:19:10.000Z,79.98
2022-12-31T07:20:10.000Z,79.88
2022-12-31T07:21:10.000Z,79.88
2022-12-31T07:22:10.000Z,79.78
2022-12-31T07:23:10.000Z,79.68
2022-12-31T07:24:10.000Z,79.74
2022-12-31T07:25:10.000Z,79.64
2022-12-31T07:26:10.000Z,79.54
2022-12-31T07:27:10.000Z,79.44
2022-12-31T07:28:10.000Z,79.24
2022-12-31T07:29:10.000Z,79.13
2022-12-31T07:30:10.000Z,79.13
2022-12-31T07:31:10.000Z,79.13
2022-12-31T07:32:10.000Z,79.03
2022-12-31T07:33:10.000Z,79.03
2022-12-31T07:34:10.000Z,78.93
2022-12-31T07:35:10.000Z,78.79
2022-12-31T07:36:10.000Z,78.79
2022-12-31T07:37:10.000Z,78.69
2022-12-31T07:38:10.000Z,78.59
2022-12-31T07:39:10.000Z,78.59
2022-12-31T07:40:10.000Z,78.59
2022-12-31T07:41:10.000Z,78.59
2022-12-31T07:42:10.000Z,78.59
2022-12-31T07:43:10.000Z,78.49
2022-12-31T07:44:10.000Z,78.49
2022-12-31T07:45:10.000Z,78.39
2022-12-31T07:46:10.000Z,78.39
2022-12-31T07:47:10.000Z,78.39
2022-12-31T07:48:10.000Z,78.39
2022-12-31T07:49:10.000Z,78.28
2022-12-31T07:50:10.000Z,78.28
2022-12-31T07:51:10.000Z,78.28
2022-12-31T07:52:10.000Z,78.19
2022-12-31T07:53:10.000Z,78.19
2022-12-31T07:54:10.000Z,78.19
2022-12-31T07:54:10.000Z,78.19
2022-12-31T07:55:10.000Z,78.28
2022-12-31T07:55:10.000Z,78.28
2022-12-31T07:56:10.000Z,78.19
2022-12-31T07:56:10.000Z,78.19
2022-12-31T07:57:10.000Z,78.28
2022-12-31T07:57:10.000Z,78.28
2022-12-31T07:58:10.000Z,78.25
2022-12-31T07:58:10.000Z,78.25
2022-12-31T07:59:10.000Z,78.15
2022-12-31T08:00:10.000Z,78.15
2022-12-31T08:01:10.000Z,78.15
2022-12-31T08:02:10.000Z,78.15
2022-12-31T08:03:10.000Z,78.15
2022-12-31T08:04:10.000Z,78.05
2022-12-31T08:05:10.000Z,78.05
2022-12-31T08:06:10.000Z,77.95
2022-12-31T08:07:10.000Z,77.95
2022-12-31T08:08:10.000Z,78.05
2022-12-31T08:09:10.000Z,78.05
2022-12-31T08:10:10.000Z,78.05
2022-12-31T08:11:10.000Z,78.05
2022-12-31T08:12:10.000Z,77.95
2022-12-31T08:13:10.000Z,77.84
2022-12-31T08:14:10.000Z,77.95
2022-12-31T08:15:10.000Z,77.84
2022-12-31T08:16:10.000Z,77.84
2022-12-31T08:17:10.000Z,77.84
2022-12-31T08:18:10.000Z,77.84
2022-12-31T08:19:10.000Z,77.75
2022-12-31T08:20:10.000Z,77.75
2022-12-31T08:21:10.000Z,77.64
2022-12-31T08:22:10.000Z,77.54
2022-12-31T08:23:10.000Z,77.40
2022-12-31T08:24:10.000Z,77.30
2022-12-31T08:25:10.000Z,77.30
2022-12-31T08:26:10.000Z,77.20
2022-12-31T08:27:10.000Z,77.10
2022-12-31T08:28:10.000Z,77.10
2022-12-31T08:29:10.000Z,77.10
2022-12-31T08:30:10.000Z,77.00
2022-12-31T08:31:10.000Z,77.00
2022-12-31T08:32:10.000Z,76.90
2022-12-31T08:33:10.000Z,76.86
2022-12-31T08:34:10.000Z,76.86
2022-12-31T08:35:10.000Z,76.76
2022-12-31T08:36:10.000Z,76.66
2022-12-31T08:37:10.000Z,76.76
2022-12-31T08:38:10.000Z,76.76
2022-12-31T08:39:10.000Z,76.66
2022-12-31T08:40:10.000Z,76.66
2022-12-31T08:41:10.000Z,76.56
2022-12-31T08:42:10.000Z,76.56
2022-12-31T08:43:10.000Z,76.56
2022-12-31T08:44:10.000Z,76.56
2022-12-31T08:45:10.000Z,76.56
2022-12-31T08:46:10.000Z,76.56
2022-12-31T08:47:09.000Z,76.66
2022-12-31T08:48:09.000Z,76.66
2022-12-31T08:49:09.000Z,76.76
2022-12-31T08:50:09.000Z,76.66
2022-12-31T08:51:09.000Z,76.66
2022-12-31T08:52:09.000Z,76.76
2022-12-31T08:53:09.000Z,76.76
2022-12-31T08:54:09.000Z,76.76
2022-12-31T08:55:09.000Z,76.76
2022-12-31T08:56:09.000Z,76.76
2022-12-31T08:57:09.000Z,76.76
2022-12-31T08:58:09.000Z,76.56
2022-12-31T08:59:09.000Z,76.56
2022-12-31T09:00:09.000Z,76.56
2022-12-31T09:01:09.000Z,76.56
2022-12-31T09:02:09.000Z,76.46
2022-12-31T09:03:09.000Z,76.46
2022-12-31T09:04:09.000Z,76.32
2022-12-31T09:05:09.000Z,76.32
2022-12-31T09:06:09.000Z,76.22
2022-12-31T09:07:09.000Z,76.12
2022-12-31T09:08:09.000Z,76.02
2022-12-31T09:09:09.000Z,76.02
2022-12-31T09:10:09.000Z,75.92
2022-12-31T09:11:09.000Z,75.92
2022-12-31T09:12:09.000Z,75.81
2022-12-31T09:13:09.000Z,75.71
2022-12-31T09:14:09.000Z,75.61
2022-12-31T09:15:09.000Z,75.61
2022-12-31T09:16:09.000Z,75.51
2022-12-31T09:17:09.000Z,75.51
2022-12-31T09:18:09.000Z,75.37
2022-12-31T09:19:09.000Z,75.37
2022-12-31T09:20:09.000Z,75.27
2022-12-31T09:21:09.000Z,75.17
2022-12-31T09:22:09.000Z,75.17
2022-12-31T09:23:09.000Z,75.07
2022-12-31T09:24:09.000Z,74.87
2022-12-31T09:25:09.000Z,74.66
2022-12-31T09:26:09.000Z,74.53
2022-12-31T09:27:09.000Z,74.43
2022-12-31T09:28:09.000Z,74.33
2022-12-31T09:29:09.000Z,74.22
2022-12-31T09:30:09.000Z,74.13
2022-12-31T09:31:09.000Z,73.93
2022-12-31T09:32:09.000Z,73.69
2022-12-31T09:33:09.000Z,73.58
2022-12-31T09:34:09.000Z,73.38
2022-12-31T09:35:09.000Z,73.28
2022-12-31T09:36:09.000Z,73.28
2022-12-31T09:37:09.000Z,73.18
2022-12-31T09:38:09.000Z,72.98
2022-12-31T09:39:09.000Z,72.98
2022-12-31T09:40:09.000Z,72.98
2022-12-31T09:41:09.000Z,72.98
2022-12-31T09:42:09.000Z,72.78
2022-12-31T09:43:09.000Z,72.75
2022-12-31T09:44:09.000Z,72.54
2022-12-31T09:45:09.000Z,72.44
2022-12-31T09:46:09.000Z,72.34
2022-12-31T09:47:09.000Z,72.24
2022-12-31T09:48:09.000Z,72.04
2022-12-31T09:49:09.000Z,71.94
2022-12-31T09:50:09.000Z,71.91
2022-12-31T09:51:09.000Z,71.80
2022-12-31T09:52:09.000Z,71.50
2022-12-31T09:53:09.000Z,71.60
2022-12-31T09:54:09.000Z,71.50
2022-12-31T09:55:09.000Z,71.30
2022-12-31T09:56:09.000Z,71.26
2022-12-31T09:57:09.000Z,70.97
2022-12-31T09:58:09.000Z,70.86
2022-12-31T09:59:09.000Z,70.97
2022-12-31T10:00:09.000Z,70.86
2022-12-31T10:01:09.000Z,70.86
2022-12-31T10:02:09.000Z,70.86
2022-12-31T10:03:09.000Z,70.76
2022-12-31T10:04:09.000Z,70.76
2022-12-31T10:05:09.000Z,70.86
2022-12-31T10:06:09.000Z,70.97
2022-12-31T10:07:09.000Z,70.97
2022-12-31T10:08:09.000Z,70.97
2022-12-31T10:09:09.000Z,70.97
2022-12-31T10:10:09.000Z,70.97
2022-12-31T10:11:09.000Z,71.06
2022-12-31T10:12:09.000Z,70.86
2022-12-31T10:13:09.000Z,70.86
2022-12-31T10:14:09.000Z,70.97
2022-12-31T10:15:09.000Z,70.76
2022-12-31T10:16:09.000Z,70.76
2022-12-31T10:17:09.000Z,70.86
2022-12-31T10:18:09.000Z,70.76
2022-12-31T10:19:09.000Z,70.56
2022-12-31T10:20:09.000Z,70.56
2022-12-31T10:21:09.000Z,70.56
2022-12-31T10:22:09.000Z,70.56
2022-12-31T10:23:09.000Z,70.56
2022-12-31T10:24:09.000Z,70.36
2022-12-31T10:25:09.000Z,70.36
2022-12-31T10:26:09.000Z,70.46
2022-12-31T10:27:09.000Z,70.46
2022-12-31T10:28:08.000Z,70.36
2022-12-31T10:29:08.000Z,70.46
2022-12-31T10:30:08.000Z,70.46
2022-12-31T10:31:08.000Z,70.36
2022-12-31T10:32:08.000Z,70.46
2022-12-31T10:33:08.000Z,70.46
2022-12-31T10:34:08.000Z,70.46
2022-12-31T10:34:08.000Z,70.46
2022-12-31T10:35:08.000Z,70.32
2022-12-31T10:35:08.000Z,70.32
2022-12-31T10:36:08.000Z,70.32
2022-12-31T10:36:08.000Z,70.32
2022-12-31T10:37:08.000Z,70.22
2022-12-31T10:37:08.000Z,70.22
2022-12-31T10:38:08.000Z,70.22
2022-12-31T10:38:08.000Z,70.22
2022-12-31T10:39:08.000Z,70.02
2022-12-31T10:40:08.000Z,69.79
2022-12-31T10:41:08.000Z,69.49
2022-12-31T10:42:08.000Z,69.38
2022-12-31T10:43:08.000Z,69.15
2022-12-31T10:44:08.000Z,68.75
2022-12-31T10:45:08.000Z,68.35
2022-12-31T10:46:08.000Z,68.31
2022-12-31T10:47:08.000Z,68.01
2022-12-31T10:48:08.000Z,67.81
2022-12-31T10:49:08.000Z,67.61
2022-12-31T10:50:08.000Z,67.61
2022-12-31T10:51:08.000Z,67.61
2022-12-31T10:52:08.000Z,67.81
2022-12-31T10:53:08.000Z,67.81
2022-12-31T10:54:08.000Z,68.11
2022-12-31T10:55:08.000Z,67.71
2022-12-31T10:56:08.000Z,67.71
2022-12-31T10:57:08.000Z,67.71
2022-12-31T10:58:08.000Z,67.81
2022-12-31T10:59:08.000Z,67.61
2022-12-31T11:00:08.000Z,67.51
2022-12-31T11:01:08.000Z,67.51
2022-12-31T11:02:08.000Z,67.51
2022-12-31T11:03:08.000Z,67.38
2022-12-31T11:04:08.000Z,67.21
2022-12-31T11:05:08.000Z,66.97
2022-12-31T11:06:08.000Z,66.87
2022-12-31T11:07:08.000Z,66.87
2022-12-31T11:08:08.000Z,66.97
2022-12-31T11:09:08.000Z,66.87
2022-12-31T11:10:08.000Z,66.67
2022-12-31T11:11:08.000Z,66.77
2022-12-31T11:12:08.000Z,67.07
2022-12-31T11:13:08.000Z,67.07
2022-12-31T11:14:08.000Z,66.67
2022-12-31T11:15:08.000Z,66.80
2022-12-31T11:16:08.000Z,66.91
2022-12-31T11:17:08.000Z,67.00
2022-12-31T11:18:08.000Z,67.11
2022-12-31T11:19:08.000Z,67.41
2022-12-31T11:20:08.000Z,67.64
2022-12-31T11:21:08.000Z,67.84
2022-12-31T11:22:08.000Z,67.94
2022-12-31T11:23:08.000Z,68.15
2022-12-31T11:24:08.000Z,68.15
2022-12-31T11:25:08.000Z,68.15
2022-12-31T11:26:08.000Z,68.04
2022-12-31T11:27:08.000Z,68.24
2022-12-31T11:28:08.000Z,68.38
2022-12-31T11:29:08.000Z,68.58
2022-12-31T11:30:08.000Z,68.68
2022-12-31T11:31:08.000Z,68.78
2022-12-31T11:32:08.000Z,68.68
2022-12-31T11:33:08.000Z,68.88
2022-12-31T11:34:08.000Z,68.98
2022-12-31T11:35:08.000Z,68.98
2022-12-31T11:36:08.000Z,68.98
2022-12-31T11:37:08.000Z,69.09
2022-12-31T11:38:08.000Z,69.32
2022-12-31T11:39:08.000Z,69.21
2022-12-31T11:40:08.000Z,69.32
2022-12-31T11:41:08.000Z,69.42
2022-12-31T11:42:08.000Z,69.52
2022-12-31T11:43:08.000Z,69.62
2022-12-31T11:44:08.000Z,69.72
2022-12-31T11:45:08.000Z,69.72
2022-12-31T11:46:08.000Z,69.82
2022-12-31T11:47:08.000Z,69.82
2022-12-31T11:48:08.000Z,69.92
2022-12-31T11:49:08.000Z,70.02
2022-12-31T11:50:08.000Z,70.02
2022-12-31T11:51:08.000Z,69.82
2022-12-31T11:52:08.000Z,69.82
2022-12-31T11:53:08.000Z,69.95
2022-12-31T11:54:08.000Z,69.95
2022-12-31T11:55:08.000Z,70.06
2022-12-31T11:56:08.000Z,70.15
2022-12-31T11:57:08.000Z,70.15
2022-12-31T11:58:08.000Z,70.26
2022-12-31T11:59:08.000Z,70.36
2022-12-31T12:00:08.000Z,70.26
2022-12-31T12:01:08.000Z,70.36
2022-12-31T12:02:08.000Z,70.46
2022-12-31T12:03:08.000Z,70.56
2022-12-31T12:04:08.000Z,70.56
2022-12-31T12:05:08.000Z,70.56
2022-12-31T12:06:08.000Z,70.46
2022-12-31T12:07:08.000Z,70.36
2022-12-31T12:08:08.000Z,70.26
2022-12-31T12:09:07.000Z,70.36
2022-12-31T12:10:07.000Z,70.36
2022-12-31T12:11:07.000Z,70.15
2022-12-31T12:12:07.000Z,70.26
2022-12-31T12:13:07.000Z,70.36
2022-12-31T12:14:07.000Z,70.36
2022-12-31T12:15:07.000Z,70.36
2022-12-31T12:16:07.000Z,70.22
2022-12-31T12:17:07.000Z,70.22
2022-12-31T12:18:07.000Z,70.02
2022-12-31T12:19:07.000Z,70.02
2022-12-31T12:20:07.000Z,70.12
2022-12-31T12:21:07.000Z,70.12
2022-12-31T12:22:07.000Z,69.92
2022-12-31T12:23:07.000Z,69.82
2022-12-31T12:24:07.000Z,69.72
2022-12-31T12:25:07.000Z,69.62
2022-12-31T12:26:07.000Z,69.52
2022-12-31T12:27:07.000Z,69.52
2022-12-31T12:28:07.000Z,69.38
2022-12-31T12:29:07.000Z,69.42
2022-12-31T12:30:07.000Z,69.32
2022-12-31T12:31:07.000Z,69.38
2022-12-31T12:32:07.000Z,69.29
2022-12-31T12:33:07.000Z,69.18
2022-12-31T12:34:07.000Z,69.18
2022-12-31T12:35:07.000Z,69.09
2022-12-31T12:36:07.000Z,69.09
2022-12-31T12:37:07.000Z,69.09
2022-12-31T12:38:07.000Z,69.09
2022-12-31T12:39:07.000Z,68.85
2022-12-31T12:40:07.000Z,68.55
2022-12-31T12:41:07.000Z,68.35
2022-12-31T12:42:07.000Z,68.35